createdAt,value
2017-07-24T00:03:01.346Z,2.90
2017-07-24T00:08:03.078Z,3.03
2017-07-24T00:13:04.875Z,3.37
2017-07-24T00:18:07.377Z,3.47
2017-07-24T00:23:09.117Z,3.10
2017-07-24T00:28:10.865Z,3.20
2017-07-24T00:33:12.611Z,2.60
2017-07-24T00:38:14.458Z,2.93
2017-07-24T00:43:16.281Z,2.40
2017-07-24T00:48:18.101Z,2.90
2017-07-24T00:53:19.879Z,2.30
2017-07-24T00:58:21.655Z,2.07
2017-07-24T01:03:23.409Z,2.30
2017-07-24T01:08:25.220Z,3.00
2017-07-24T01:13:26.946Z,2.27
2017-07-24T01:18:28.868Z,2.27
2017-07-24T01:23:30.989Z,2.20
2017-07-24T01:28:32.730Z,2.30
2017-07-24T01:33:34.478Z,2.17
2017-07-24T01:38:36.965Z,2.30
2017-07-24T01:43:38.777Z,2.57
2017-07-24T01:48:40.533Z,2.63
2017-07-24T01:53:42.402Z,2.30
2017-07-24T01:58:44.205Z,2.20
2017-07-24T02:03:46.843Z,2.40
2017-07-24T02:08:48.722Z,2.90
2017-07-24T02:13:50.530Z,2.03
2017-07-24T02:18:52.285Z,2.40
2017-07-24T02:23:54.046Z,2.10
2017-07-24T02:28:55.782Z,2.30
2017-07-24T02:33:57.526Z,2.00
2017-07-24T02:38:59.251Z,2.37
2017-07-24T02:44:01.024Z,2.00
2017-07-24T02:49:02.782Z,2.27
2017-07-24T02:54:05.294Z,2.40
2017-07-24T02:59:07.026Z,2.47
2017-07-24T03:04:08.853Z,2.43
2017-07-24T03:09:10.651Z,2.17
2017-07-24T03:14:12.402Z,2.40
2017-07-24T03:19:14.939Z,2.23
2017-07-24T03:24:16.778Z,2.40
2017-07-24T03:29:18.585Z,2.50
2017-07-24T03:34:20.512Z,2.70
2017-07-24T03:39:22.291Z,2.23
2017-07-24T03:44:24.046Z,2.53
2017-07-24T03:49:25.849Z,3.03
2017-07-24T03:54:27.622Z,2.50
2017-07-24T03:59:29.446Z,2.70
2017-07-24T04:04:31.367Z,2.53
2017-07-24T04:09:33.145Z,2.50
2017-07-24T04:14:34.944Z,2.20
2017-07-24T04:19:37.398Z,2.80
2017-07-24T04:24:39.146Z,2.57
2017-07-24T04:29:40.858Z,2.40
2017-07-24T04:34:42.697Z,2.17
2017-07-24T04:39:44.427Z,2.57
2017-07-24T04:44:46.214Z,2.20
2017-07-24T04:49:48.012Z,2.27
2017-07-24T04:54:49.742Z,1.93
2017-07-24T04:59:51.591Z,2.07
2017-07-24T05:04:53.479Z,1.97
2017-07-24T05:09:55.254Z,1.77
2017-07-24T05:14:57.122Z,2.10
2017-07-24T05:19:59.021Z,2.00
2017-07-24T05:25:15.727Z,1.90
2017-07-24T05:30:17.496Z,4.03
2017-07-24T05:35:19.248Z,2.27
2017-07-24T05:40:21.495Z,1.87
2017-07-24T05:45:24.219Z,1.77
2017-07-24T05:50:26.066Z,2.00
2017-07-24T05:55:28.589Z,1.93
2017-07-24T06:00:30.369Z,2.50
2017-07-24T06:05:33.215Z,1.90
2017-07-24T06:10:35.117Z,1.80
2017-07-24T06:15:36.977Z,1.90
2017-07-24T06:20:38.826Z,2.27
2017-07-24T06:25:40.633Z,1.80
2017-07-24T06:30:42.476Z,1.90
2017-07-24T06:35:44.974Z,2.27
2017-07-24T06:40:46.894Z,1.60
2017-07-24T06:45:48.835Z,2.63
2017-07-24T06:50:50.553Z,2.13
2017-07-24T06:55:52.323Z,1.70
2017-07-24T07:00:54.124Z,2.27
2017-07-24T07:05:56.018Z,2.23
2017-07-24T07:10:57.770Z,2.33
2017-07-24T07:15:59.574Z,2.23
2017-07-24T07:21:01.421Z,2.60
2017-07-24T07:26:03.254Z,2.47
2017-07-24T07:31:05.107Z,2.70
2017-07-24T07:36:06.874Z,2.50
2017-07-24T07:41:08.882Z,2.70
2017-07-24T07:46:10.655Z,2.30
2017-07-24T07:51:13.270Z,2.83
2017-07-24T07:56:15.071Z,2.60
2017-07-24T08:01:16.907Z,3.27
2017-07-24T08:06:19.419Z,2.93
2017-07-24T08:11:21.227Z,4.30
2017-07-24T08:16:23.085Z,3.67
2017-07-24T08:21:24.894Z,4.50
2017-07-24T08:26:26.679Z,4.07
2017-07-24T08:31:28.493Z,3.57
2017-07-24T08:36:31.018Z,3.50
2017-07-24T08:41:32.782Z,3.83
2017-07-24T08:46:34.499Z,4.37
2017-07-24T08:51:36.315Z,3.80
2017-07-24T08:56:38.081Z,4.50
2017-07-24T09:01:39.862Z,4.70
2017-07-24T09:06:41.648Z,4.97
2017-07-24T09:11:43.475Z,5.17
2017-07-24T09:16:45.219Z,5.13
2017-07-24T09:21:46.969Z,4.27
2017-07-24T09:26:48.735Z,4.30
2017-07-24T09:31:50.464Z,4.40
2017-07-24T09:36:52.206Z,6.50
2017-07-24T09:41:53.959Z,4.20
2017-07-24T09:46:55.700Z,4.70
2017-07-24T09:51:57.454Z,3.93
2017-07-24T09:56:59.237Z,4.10
2017-07-24T10:02:00.963Z,5.20
2017-07-24T10:07:02.808Z,5.10
2017-07-24T10:12:04.538Z,4.90
2017-07-24T10:17:13.212Z,6.63
2017-07-24T10:22:14.940Z,5.80
2017-07-24T10:27:16.718Z,5.90
2017-07-24T10:32:18.453Z,5.67
2017-07-24T10:37:20.254Z,5.80
2017-07-24T10:42:22.762Z,7.50
2017-07-24T10:47:24.493Z,6.50
2017-07-24T10:52:26.229Z,5.50
2017-07-24T10:57:28.750Z,4.10
2017-07-24T11:02:31.237Z,4.23
2017-07-24T11:07:32.983Z,3.53
2017-07-24T11:12:34.751Z,3.90
2017-07-24T11:17:36.521Z,4.77
2017-07-24T11:22:38.259Z,3.03
2017-07-24T11:27:40.047Z,3.23
2017-07-24T11:32:41.828Z,3.20
2017-07-24T11:37:43.635Z,4.30
2017-07-24T11:42:45.468Z,4.93
2017-07-24T11:47:47.527Z,7.57
2017-07-24T11:52:49.349Z,9.30
2017-07-24T11:57:51.541Z,9.93
2017-07-24T12:02:54.069Z,10.37
2017-07-24T12:07:57.649Z,11.70
2017-07-24T12:13:00.126Z,12.17
2017-07-24T12:18:01.904Z,8.63
2017-07-24T12:23:03.699Z,8.73
2017-07-24T12:28:05.465Z,9.20
2017-07-24T12:33:07.381Z,10.80
2017-07-24T12:38:09.198Z,10.77
2017-07-24T12:43:10.944Z,9.57
2017-07-24T12:48:12.669Z,6.20
2017-07-24T12:53:14.409Z,9.33
2017-07-24T12:58:16.150Z,8.40
2017-07-24T13:03:17.926Z,8.37
2017-07-24T13:08:19.755Z,6.77
2017-07-24T13:13:21.510Z,6.33
2017-07-24T13:18:23.309Z,6.17
2017-07-24T13:23:25.100Z,6.27
2017-07-24T13:28:26.824Z,7.00
2017-07-24T13:33:28.569Z,7.13
2017-07-24T13:38:31.382Z,7.37
2017-07-24T13:43:33.163Z,9.23
2017-07-24T13:48:35.259Z,10.50
2017-07-24T13:53:37.006Z,11.57
2017-07-24T13:58:38.891Z,11.27
2017-07-24T14:03:40.641Z,8.00
2017-07-24T14:08:42.411Z,9.40
2017-07-24T14:13:44.458Z,8.20
2017-07-24T14:18:46.533Z,8.00
2017-07-24T14:23:48.294Z,6.90
2017-07-24T14:28:50.410Z,8.30
2017-07-24T14:33:52.206Z,8.00
2017-07-24T14:38:54.082Z,8.80
2017-07-24T14:43:56.565Z,7.17
2017-07-24T14:48:58.319Z,7.33
2017-07-24T14:54:00.046Z,7.90
2017-07-24T14:59:01.902Z,9.30
2017-07-24T15:04:03.713Z,7.77
2017-07-24T15:09:05.470Z,8.10
2017-07-24T15:14:07.247Z,7.97
2017-07-24T15:19:08.986Z,8.23
2017-07-24T15:24:10.701Z,8.83
2017-07-24T15:29:12.487Z,10.33
2017-07-24T15:34:14.229Z,11.33
2017-07-24T15:39:16.008Z,11.70
2017-07-24T15:44:19.710Z,11.93
2017-07-24T15:49:21.754Z,12.73
2017-07-24T15:54:23.610Z,12.87
2017-07-24T15:59:26.026Z,10.20
2017-07-24T16:04:27.774Z,9.80
2017-07-24T16:09:31.125Z,11.40
2017-07-24T16:14:32.905Z,13.80
2017-07-24T16:19:36.124Z,12.00
2017-07-24T16:24:38.180Z,12.20
2017-07-24T16:29:40.261Z,14.17
2017-07-24T16:34:43.017Z,13.00
2017-07-24T16:39:45.732Z,13.60
2017-07-24T16:44:47.614Z,15.50
2017-07-24T16:49:49.401Z,14.43
2017-07-24T16:54:51.231Z,15.10
2017-07-24T16:59:52.994Z,15.23
2017-07-24T17:04:54.762Z,14.27
2017-07-24T17:09:56.526Z,15.43
2017-07-24T17:14:58.296Z,16.37
2017-07-24T17:20:00.026Z,12.80
2017-07-24T17:25:01.785Z,14.40
2017-07-24T17:30:03.882Z,13.37
2017-07-24T17:35:05.644Z,11.10
2017-07-24T17:40:07.386Z,9.83
2017-07-24T17:45:09.911Z,8.27
2017-07-24T17:50:11.647Z,8.00
2017-07-24T17:55:13.387Z,9.40
2017-07-24T18:00:15.131Z,11.87
2017-07-24T18:05:16.873Z,11.47
2017-07-24T18:10:18.616Z,13.40
2017-07-24T18:15:20.433Z,12.83
2017-07-24T18:20:22.266Z,16.40
2017-07-24T18:25:28.123Z,16.47
2017-07-24T18:30:45.712Z,17.10
2017-07-24T18:35:47.428Z,20.10
2017-07-24T18:40:49.940Z,21.70
2017-07-24T18:45:51.764Z,22.07
2017-07-24T18:50:54.443Z,23.70
2017-07-24T18:55:56.310Z,25.73
2017-07-24T19:00:58.115Z,26.30
2017-07-24T19:05:59.858Z,27.30
2017-07-24T19:11:01.617Z,26.50
2017-07-24T19:16:03.414Z,24.10
2017-07-24T19:21:05.197Z,30.17
2017-07-24T19:26:06.970Z,28.37
2017-07-24T19:31:08.703Z,29.53
2017-07-24T19:36:10.491Z,29.83
2017-07-24T19:41:12.215Z,25.03
2017-07-24T19:46:14.077Z,24.00
2017-07-24T19:51:15.839Z,23.57
2017-07-24T19:56:17.575Z,25.37
2017-07-24T20:01:19.400Z,24.30
2017-07-24T20:06:21.924Z,25.57
2017-07-24T20:11:23.839Z,26.57
2017-07-24T20:16:26.931Z,23.00
2017-07-24T20:21:28.683Z,23.70
2017-07-24T20:26:30.469Z,23.57
2017-07-24T20:31:32.226Z,26.40
2017-07-24T20:36:33.964Z,24.77
2017-07-24T20:41:35.765Z,24.20
2017-07-24T20:46:37.626Z,27.77
2017-07-24T20:51:39.370Z,24.13
2017-07-24T20:56:41.118Z,21.07
2017-07-24T21:01:43.613Z,22.60
2017-07-24T21:06:45.703Z,20.93
2017-07-24T21:11:47.454Z,20.90
2017-07-24T21:16:49.311Z,22.53
2017-07-24T21:21:51.806Z,20.13
2017-07-24T21:26:53.890Z,24.33
2017-07-24T21:31:55.838Z,25.60
2017-07-24T21:36:57.567Z,26.27
2017-07-24T21:41:59.320Z,25.23
2017-07-24T21:47:01.123Z,22.60
2017-07-24T21:52:02.856Z,22.60
2017-07-24T21:57:04.644Z,23.80
2017-07-24T22:02:06.471Z,24.23
2017-07-24T22:07:08.194Z,23.33
2017-07-24T22:12:09.969Z,24.80
2017-07-24T22:17:11.798Z,23.90
2017-07-24T22:22:13.555Z,25.23
2017-07-24T22:27:15.339Z,27.63
2017-07-24T22:32:17.104Z,30.27
2017-07-24T22:37:18.914Z,29.37
2017-07-24T22:42:20.878Z,28.40
2017-07-24T22:47:22.715Z,26.40
2017-07-24T22:52:32.183Z,27.20
2017-07-24T22:57:33.909Z,26.93
2017-07-24T23:02:35.710Z,22.30
2017-07-24T23:07:37.438Z,23.10
2017-07-24T23:12:39.167Z,23.67
2017-07-24T23:17:40.988Z,21.90
2017-07-24T23:22:42.734Z,25.17
2017-07-24T23:27:44.466Z,24.83
2017-07-24T23:32:46.308Z,22.87
2017-07-24T23:37:48.084Z,25.67
2017-07-24T23:42:49.865Z,26.67
2017-07-24T23:47:52.437Z,30.37
2017-07-24T23:52:54.264Z,28.63
2017-07-24T23:57:56.779Z,29.43
